Lollie, Arkansas
Current Conditions -  °F | °C
As of 6:03 PM on Monday 22 Dec 2014 (Local Time) from KLRF Reporting Station
Scattered Clouds Scattered Clouds  
Wind Chill: 54°   Ceiling: Unl
Heat Index: 54°   Visibility: 8mi
Dew Point: 52°   Wind: 5mph
Humidity: 94%   Direction: 130°SE
Pressure: 29.56"   Gusts: NA
Location:  34.9587°N, 92.3576°W
Report Text: KLRF 230003Z AUTO 13004KT 8SM SCT012 SCT018 12/11 A2956 RMK AO2
Loading
Personal Weather Stations






























Interactive Weather Map New forecast layout! Learn more

10-Day Weather Forecast

Advertisements
Track Severe Weather on mobile